sensor_id;sensor_type;location;lat;lon;timestamp;temperature;humidity
68609;SHT31;55581;46.718;7.690;2023-12-20T00:01:44;4.46;94.86
68609;SHT31;55581;46.718;7.690;2023-12-20T00:04:09;4.56;94.40
68609;SHT31;55581;46.718;7.690;2023-12-20T00:06:37;4.53;94.09
68609;SHT31;55581;46.718;7.690;2023-12-20T00:09:02;4.57;94.81
68609;SHT31;55581;46.718;7.690;2023-12-20T00:11:30;4.49;95.10
68609;SHT31;55581;46.718;7.690;2023-12-20T00:13:56;4.52;94.68
68609;SHT31;55581;46.718;7.690;2023-12-20T00:16:21;4.52;94.47
68609;SHT31;55581;46.718;7.690;2023-12-20T00:18:46;4.46;93.99
68609;SHT31;55581;46.718;7.690;2023-12-20T00:21:12;4.46;94.23
68609;SHT31;55581;46.718;7.690;2023-12-20T00:23:40;4.44;93.77
68609;SHT31;55581;46.718;7.690;2023-12-20T00:26:07;4.42;93.67
68609;SHT31;55581;46.718;7.690;2023-12-20T00:28:33;4.49;93.93
68609;SHT31;55581;46.718;7.690;2023-12-20T00:31:01;4.56;94.71
68609;SHT31;55581;46.718;7.690;2023-12-20T00:33:27;4.53;94.95
68609;SHT31;55581;46.718;7.690;2023-12-20T00:35:52;4.53;95.01
68609;SHT31;55581;46.718;7.690;2023-12-20T00:38:18;4.54;95.08
68609;SHT31;55581;46.718;7.690;2023-12-20T00:40:44;4.54;94.90
68609;SHT31;55581;46.718;7.690;2023-12-20T00:43:10;4.53;95.21
68609;SHT31;55581;46.718;7.690;2023-12-20T00:45:35;4.54;95.50
68609;SHT31;55581;46.718;7.690;2023-12-20T00:48:01;4.53;95.12
68609;SHT31;55581;46.718;7.690;2023-12-20T00:50:27;4.60;94.50
68609;SHT31;55581;46.718;7.690;2023-12-20T00:52:52;4.60;94.50
68609;SHT31;55581;46.718;7.690;2023-12-20T00:55:19;4.56;94.63
68609;SHT31;55581;46.718;7.690;2023-12-20T00:57:45;4.52;94.19
68609;SHT31;55581;46.718;7.690;2023-12-20T01:00:16;4.49;94.17
68609;SHT31;55581;46.718;7.690;2023-12-20T01:02:42;4.46;94.24
68609;SHT31;55581;46.718;7.690;2023-12-20T01:05:10;4.46;92.92
68609;SHT31;55581;46.718;7.690;2023-12-20T01:07:35;4.49;92.30
68609;SHT31;55581;46.718;7.690;2023-12-20T01:10:01;4.56;92.50
68609;SHT31;55581;46.718;7.690;2023-12-20T01:12:26;4.52;93.36
68609;SHT31;55581;46.718;7.690;2023-12-20T01:14:51;4.47;93.65
68609;SHT31;55581;46.718;7.690;2023-12-20T01:17:17;4.47;94.09
68609;SHT31;55581;46.718;7.690;2023-12-20T01:19:43;4.60;93.46
68609;SHT31;55581;46.718;7.690;2023-12-20T01:22:08;4.56;94.06
68609;SHT31;55581;46.718;7.690;2023-12-20T01:24:33;4.49;94.02
68609;SHT31;55581;46.718;7.690;2023-12-20T01:26:59;4.49;94.18
68609;SHT31;55581;46.718;7.690;2023-12-20T01:29:24;4.47;93.84
68609;SHT31;55581;46.718;7.690;2023-12-20T01:31:49;4.44;93.30
68609;SHT31;55581;46.718;7.690;2023-12-20T01:34:17;4.40;93.58
68609;SHT31;55581;46.718;7.690;2023-12-20T01:36:42;4.36;93.46
68609;SHT31;55581;46.718;7.690;2023-12-20T01:39:08;4.32;93.42
68609;SHT31;55581;46.718;7.690;2023-12-20T01:41:33;4.30;93.19
68609;SHT31;55581;46.718;7.690;2023-12-20T01:43:59;4.36;92.34
68609;SHT31;55581;46.718;7.690;2023-12-20T01:46:27;4.39;91.90
68609;SHT31;55581;46.718;7.690;2023-12-20T01:48:53;4.37;91.84
68609;SHT31;55581;46.718;7.690;2023-12-20T01:51:19;4.40;91.34
68609;SHT31;55581;46.718;7.690;2023-12-20T01:53:46;4.40;91.13
68609;SHT31;55581;46.718;7.690;2023-12-20T01:56:12;4.43;91.07
68609;SHT31;55581;46.718;7.690;2023-12-20T01:58:43;4.43;91.54
68609;SHT31;55581;46.718;7.690;2023-12-20T02:01:10;4.44;91.72
68609;SHT31;55581;46.718;7.690;2023-12-20T02:03:35;4.47;91.64
68609;SHT31;55581;46.718;7.690;2023-12-20T02:06:03;4.47;91.94
68609;SHT31;55581;46.718;7.690;2023-12-20T02:08:28;4.50;92.44
68609;SHT31;55581;46.718;7.690;2023-12-20T02:10:55;4.47;92.49
68609;SHT31;55581;46.718;7.690;2023-12-20T02:13:21;4.53;91.80
68609;SHT31;55581;46.718;7.690;2023-12-20T02:15:47;4.56;88.88
68609;SHT31;55581;46.718;7.690;2023-12-20T02:18:12;4.57;86.55
68609;SHT31;55581;46.718;7.690;2023-12-20T02:20:40;4.56;88.43
68609;SHT31;55581;46.718;7.690;2023-12-20T02:23:06;4.50;88.65
68609;SHT31;55581;46.718;7.690;2023-12-20T02:25:31;4.47;88.30
68609;SHT31;55581;46.718;7.690;2023-12-20T02:27:57;4.46;87.89
68609;SHT31;55581;46.718;7.690;2023-12-20T02:30:23;4.47;86.72
68609;SHT31;55581;46.718;7.690;2023-12-20T02:32:49;4.50;88.23
68609;SHT31;55581;46.718;7.690;2023-12-20T02:35:15;4.54;88.15
68609;SHT31;55581;46.718;7.690;2023-12-20T02:37:40;4.52;88.84
68609;SHT31;55581;46.718;7.690;2023-12-20T02:40:06;4.54;89.21
68609;SHT31;55581;46.718;7.690;2023-12-20T02:42:32;4.50;88.08
68609;SHT31;55581;46.718;7.690;2023-12-20T02:44:57;4.54;87.92
68609;SHT31;55581;46.718;7.690;2023-12-20T02:47:23;4.52;87.67
68609;SHT31;55581;46.718;7.690;2023-12-20T02:49:48;4.54;86.17
68609;SHT31;55581;46.718;7.690;2023-12-20T02:52:18;4.53;87.03
68609;SHT31;55581;46.718;7.690;2023-12-20T02:54:43;4.56;87.10
68609;SHT31;55581;46.718;7.690;2023-12-20T02:57:08;4.57;88.64
68609;SHT31;55581;46.718;7.690;2023-12-20T02:59:34;4.61;87.07
68609;SHT31;55581;46.718;7.690;2023-12-20T03:02:00;4.74;83.84
68609;SHT31;55581;46.718;7.690;2023-12-20T03:04:26;4.77;82.99
68609;SHT31;55581;46.718;7.690;2023-12-20T03:06:51;4.78;86.06
68609;SHT31;55581;46.718;7.690;2023-12-20T03:09:16;4.77;84.99
68609;SHT31;55581;46.718;7.690;2023-12-20T03:11:42;4.82;83.46
68609;SHT31;55581;46.718;7.690;2023-12-20T03:14:08;4.82;82.20
68609;SHT31;55581;46.718;7.690;2023-12-20T03:16:35;4.91;82.73
68609;SHT31;55581;46.718;7.690;2023-12-20T03:19:00;4.92;84.36
68609;SHT31;55581;46.718;7.690;2023-12-20T03:21:26;4.93;85.35
68609;SHT31;55581;46.718;7.690;2023-12-20T03:23:51;4.93;85.17
68609;SHT31;55581;46.718;7.690;2023-12-20T03:26:16;4.92;86.07
68609;SHT31;55581;46.718;7.690;2023-12-20T03:28:42;4.93;86.43
68609;SHT31;55581;46.718;7.690;2023-12-20T03:31:09;4.91;87.26
68609;SHT31;55581;46.718;7.690;2023-12-20T03:33:37;4.87;87.52
68609;SHT31;55581;46.718;7.690;2023-12-20T03:36:02;4.84;86.95
68609;SHT31;55581;46.718;7.690;2023-12-20T03:38:29;4.84;87.32
68609;SHT31;55581;46.718;7.690;2023-12-20T03:40:56;4.81;87.22
68609;SHT31;55581;46.718;7.690;2023-12-20T03:43:25;4.82;87.56
68609;SHT31;55581;46.718;7.690;2023-12-20T03:45:57;4.81;87.29
68609;SHT31;55581;46.718;7.690;2023-12-20T03:48:23;4.78;87.36
68609;SHT31;55581;46.718;7.690;2023-12-20T03:50:49;4.78;87.03
68609;SHT31;55581;46.718;7.690;2023-12-20T03:53:14;4.77;86.73
68609;SHT31;55581;46.718;7.690;2023-12-20T03:55:39;4.78;86.38
68609;SHT31;55581;46.718;7.690;2023-12-20T03:58:05;4.77;84.63
68609;SHT31;55581;46.718;7.690;2023-12-20T04:00:30;4.81;86.74
68609;SHT31;55581;46.718;7.690;2023-12-20T04:02:56;4.81;87.17
68609;SHT31;55581;46.718;7.690;2023-12-20T04:05:21;4.81;88.29
68609;SHT31;55581;46.718;7.690;2023-12-20T04:07:49;4.87;85.17
68609;SHT31;55581;46.718;7.690;2023-12-20T04:10:16;4.96;83.92
68609;SHT31;55581;46.718;7.690;2023-12-20T04:12:41;5.13;82.40
68609;SHT31;55581;46.718;7.690;2023-12-20T04:15:07;5.22;82.47
68609;SHT31;55581;46.718;7.690;2023-12-20T04:17:35;5.25;82.58
68609;SHT31;55581;46.718;7.690;2023-12-20T04:20:01;5.33;80.30
68609;SHT31;55581;46.718;7.690;2023-12-20T04:22:28;5.36;80.26
68609;SHT31;55581;46.718;7.690;2023-12-20T04:24:56;5.22;85.13
68609;SHT31;55581;46.718;7.690;2023-12-20T04:27:24;5.11;87.20
68609;SHT31;55581;46.718;7.690;2023-12-20T04:29:52;4.99;88.84
68609;SHT31;55581;46.718;7.690;2023-12-20T04:32:23;4.93;90.53
68609;SHT31;55581;46.718;7.690;2023-12-20T04:34:48;4.89;90.76
68609;SHT31;55581;46.718;7.690;2023-12-20T04:37:14;4.82;89.75
68609;SHT31;55581;46.718;7.690;2023-12-20T04:39:43;4.80;90.39
68609;SHT31;55581;46.718;7.690;2023-12-20T04:42:11;4.72;91.53
68609;SHT31;55581;46.718;7.690;2023-12-20T04:44:39;4.68;91.69
68609;SHT31;55581;46.718;7.690;2023-12-20T04:47:04;4.71;91.79
68609;SHT31;55581;46.718;7.690;2023-12-20T04:49:29;4.74;90.74
68609;SHT31;55581;46.718;7.690;2023-12-20T04:51:55;4.77;91.36
68609;SHT31;55581;46.718;7.690;2023-12-20T04:54:22;4.74;92.00
68609;SHT31;55581;46.718;7.690;2023-12-20T04:56:47;4.75;93.25
68609;SHT31;55581;46.718;7.690;2023-12-20T04:59:15;4.74;92.08
68609;SHT31;55581;46.718;7.690;2023-12-20T05:01:40;4.77;92.44
68609;SHT31;55581;46.718;7.690;2023-12-20T05:04:06;4.74;93.30
68609;SHT31;55581;46.718;7.690;2023-12-20T05:06:32;4.80;94.99
68609;SHT31;55581;46.718;7.690;2023-12-20T05:08:57;4.80;94.97
68609;SHT31;55581;46.718;7.690;2023-12-20T05:11:24;4.80;94.97
68609;SHT31;55581;46.718;7.690;2023-12-20T05:13:49;4.81;95.19
68609;SHT31;55581;46.718;7.690;2023-12-20T05:16:14;4.78;95.25
68609;SHT31;55581;46.718;7.690;2023-12-20T05:18:45;4.75;95.06
68609;SHT31;55581;46.718;7.690;2023-12-20T05:21:10;4.84;94.71
68609;SHT31;55581;46.718;7.690;2023-12-20T05:23:36;4.75;94.87
68609;SHT31;55581;46.718;7.690;2023-12-20T05:26:01;4.71;95.35
68609;SHT31;55581;46.718;7.690;2023-12-20T05:28:27;4.75;95.19
68609;SHT31;55581;46.718;7.690;2023-12-20T05:30:53;4.74;95.20
68609;SHT31;55581;46.718;7.690;2023-12-20T05:33:18;4.72;95.48
68609;SHT31;55581;46.718;7.690;2023-12-20T05:35:44;4.72;96.26
68609;SHT31;55581;46.718;7.690;2023-12-20T05:38:12;4.77;96.60
68609;SHT31;55581;46.718;7.690;2023-12-20T05:40:37;4.74;95.97
68609;SHT31;55581;46.718;7.690;2023-12-20T05:43:03;4.74;96.41
68609;SHT31;55581;46.718;7.690;2023-12-20T05:45:28;4.72;95.53
68609;SHT31;55581;46.718;7.690;2023-12-20T05:47:54;4.71;95.54
68609;SHT31;55581;46.718;7.690;2023-12-20T05:50:20;4.68;96.22
68609;SHT31;55581;46.718;7.690;2023-12-20T05:52:47;4.68;96.61
68609;SHT31;55581;46.718;7.690;2023-12-20T05:55:12;4.77;96.01
68609;SHT31;55581;46.718;7.690;2023-12-20T05:57:38;4.70;95.87
68609;SHT31;55581;46.718;7.690;2023-12-20T06:00:05;4.64;95.87
68609;SHT31;55581;46.718;7.690;2023-12-20T06:02:31;4.63;96.17
68609;SHT31;55581;46.718;7.690;2023-12-20T06:04:57;4.61;96.16
68609;SHT31;55581;46.718;7.690;2023-12-20T06:07:23;4.61;96.37
68609;SHT31;55581;46.718;7.690;2023-12-20T06:09:51;4.54;96.34
68609;SHT31;55581;46.718;7.690;2023-12-20T06:12:16;4.58;94.94
68609;SHT31;55581;46.718;7.690;2023-12-20T06:14:41;4.63;94.99
68609;SHT31;55581;46.718;7.690;2023-12-20T06:17:07;4.63;94.83
68609;SHT31;55581;46.718;7.690;2023-12-20T06:19:32;4.63;94.65
68609;SHT31;55581;46.718;7.690;2023-12-20T06:21:58;4.63;94.94
68609;SHT31;55581;46.718;7.690;2023-12-20T06:24:23;4.63;96.01
68609;SHT31;55581;46.718;7.690;2023-12-20T06:26:53;4.65;96.52
68609;SHT31;55581;46.718;7.690;2023-12-20T06:29:21;4.67;96.40
68609;SHT31;55581;46.718;7.690;2023-12-20T06:31:46;4.70;95.63
68609;SHT31;55581;46.718;7.690;2023-12-20T06:34:14;4.74;95.60
68609;SHT31;55581;46.718;7.690;2023-12-20T06:36:39;4.71;95.95
68609;SHT31;55581;46.718;7.690;2023-12-20T06:39:05;4.68;96.05
68609;SHT31;55581;46.718;7.690;2023-12-20T06:41:30;4.70;96.40
68609;SHT31;55581;46.718;7.690;2023-12-20T06:43:56;4.70;96.47
68609;SHT31;55581;46.718;7.690;2023-12-20T06:46:21;4.71;96.71
68609;SHT31;55581;46.718;7.690;2023-12-20T06:48:47;4.70;96.98
68609;SHT31;55581;46.718;7.690;2023-12-20T06:51:18;4.72;96.77
68609;SHT31;55581;46.718;7.690;2023-12-20T06:53:45;4.74;96.73
68609;SHT31;55581;46.718;7.690;2023-12-20T06:56:11;4.80;96.53
68609;SHT31;55581;46.718;7.690;2023-12-20T06:58:39;4.88;96.01
68609;SHT31;55581;46.718;7.690;2023-12-20T07:01:04;5.01;95.40
68609;SHT31;55581;46.718;7.690;2023-12-20T07:03:30;4.98;95.46
68609;SHT31;55581;46.718;7.690;2023-12-20T07:05:55;4.91;95.34
68609;SHT31;55581;46.718;7.690;2023-12-20T07:08:21;4.88;95.84
68609;SHT31;55581;46.718;7.690;2023-12-20T07:10:46;4.87;96.49
68609;SHT31;55581;46.718;7.690;2023-12-20T07:13:11;4.87;96.38
68609;SHT31;55581;46.718;7.690;2023-12-20T07:15:37;4.87;96.47
68609;SHT31;55581;46.718;7.690;2023-12-20T07:18:03;4.88;96.67
68609;SHT31;55581;46.718;7.690;2023-12-20T07:20:31;4.88;96.79
68609;SHT31;55581;46.718;7.690;2023-12-20T07:22:57;4.87;96.94
68609;SHT31;55581;46.718;7.690;2023-12-20T07:25:24;4.85;97.07
68609;SHT31;55581;46.718;7.690;2023-12-20T07:27:50;4.88;96.82
68609;SHT31;55581;46.718;7.690;2023-12-20T07:30:15;4.85;96.63
68609;SHT31;55581;46.718;7.690;2023-12-20T07:32:41;4.85;96.45
68609;SHT31;55581;46.718;7.690;2023-12-20T07:35:06;4.88;96.93
68609;SHT31;55581;46.718;7.690;2023-12-20T07:37:35;4.89;97.05
68609;SHT31;55581;46.718;7.690;2023-12-20T07:40:03;4.91;96.98
68609;SHT31;55581;46.718;7.690;2023-12-20T07:42:31;4.92;96.92
68609;SHT31;55581;46.718;7.690;2023-12-20T07:44:56;4.95;96.91
68609;SHT31;55581;46.718;7.690;2023-12-20T07:47:22;4.92;96.44
68609;SHT31;55581;46.718;7.690;2023-12-20T07:49:48;4.89;96.63
68609;SHT31;55581;46.718;7.690;2023-12-20T07:52:17;4.91;97.28
68609;SHT31;55581;46.718;7.690;2023-12-20T07:54:43;4.92;96.94
68609;SHT31;55581;46.718;7.690;2023-12-20T07:57:10;4.96;97.05
68609;SHT31;55581;46.718;7.690;2023-12-20T07:59:36;5.01;97.01
68609;SHT31;55581;46.718;7.690;2023-12-20T08:02:01;5.01;96.47
68609;SHT31;55581;46.718;7.690;2023-12-20T08:04:29;4.99;96.44
68609;SHT31;55581;46.718;7.690;2023-12-20T08:06:57;4.95;96.36
68609;SHT31;55581;46.718;7.690;2023-12-20T08:09:22;4.98;96.55
68609;SHT31;55581;46.718;7.690;2023-12-20T08:11:48;5.02;96.68
68609;SHT31;55581;46.718;7.690;2023-12-20T08:14:17;5.01;96.11
68609;SHT31;55581;46.718;7.690;2023-12-20T08:16:42;5.02;96.76
68609;SHT31;55581;46.718;7.690;2023-12-20T08:19:08;5.01;96.32
68609;SHT31;55581;46.718;7.690;2023-12-20T08:21:34;5.01;96.31
68609;SHT31;55581;46.718;7.690;2023-12-20T08:23:59;4.99;96.74
68609;SHT31;55581;46.718;7.690;2023-12-20T08:26:26;4.96;97.26
68609;SHT31;55581;46.718;7.690;2023-12-20T08:28:51;4.98;97.41
68609;SHT31;55581;46.718;7.690;2023-12-20T08:31:17;5.02;97.86
68609;SHT31;55581;46.718;7.690;2023-12-20T08:33:47;5.07;97.71
68609;SHT31;55581;46.718;7.690;2023-12-20T08:36:13;5.15;97.64
68609;SHT31;55581;46.718;7.690;2023-12-20T08:38:39;5.23;97.27
68609;SHT31;55581;46.718;7.690;2023-12-20T08:41:04;5.29;97.18
68609;SHT31;55581;46.718;7.690;2023-12-20T08:43:31;5.33;96.84
68609;SHT31;55581;46.718;7.690;2023-12-20T08:45:56;5.40;96.73
68609;SHT31;55581;46.718;7.690;2023-12-20T08:48:22;5.48;96.61
68609;SHT31;55581;46.718;7.690;2023-12-20T08:50:47;5.53;96.06
68609;SHT31;55581;46.718;7.690;2023-12-20T08:53:15;5.56;95.91
68609;SHT31;55581;46.718;7.690;2023-12-20T08:55:41;5.57;95.74
68609;SHT31;55581;46.718;7.690;2023-12-20T08:58:09;5.60;95.69
68609;SHT31;55581;46.718;7.690;2023-12-20T09:00:35;5.64;96.10
68609;SHT31;55581;46.718;7.690;2023-12-20T09:03:03;5.73;95.71
68609;SHT31;55581;46.718;7.690;2023-12-20T09:05:29;5.75;95.62
68609;SHT31;55581;46.718;7.690;2023-12-20T09:07:55;5.82;96.06
68609;SHT31;55581;46.718;7.690;2023-12-20T09:10:20;5.85;95.02
68609;SHT31;55581;46.718;7.690;2023-12-20T09:12:54;5.85;94.91
68609;SHT31;55581;46.718;7.690;2023-12-20T09:15:26;5.85;94.65
68609;SHT31;55581;46.718;7.690;2023-12-20T09:17:52;5.87;94.58
68609;SHT31;55581;46.718;7.690;2023-12-20T09:20:19;5.91;94.05
68609;SHT31;55581;46.718;7.690;2023-12-20T09:22:44;5.91;94.62
68609;SHT31;55581;46.718;7.690;2023-12-20T09:25:10;5.95;94.52
68609;SHT31;55581;46.718;7.690;2023-12-20T09:27:36;5.98;94.29
68609;SHT31;55581;46.718;7.690;2023-12-20T09:30:02;6.05;93.31
68609;SHT31;55581;46.718;7.690;2023-12-20T09:32:29;6.01;93.23
68609;SHT31;55581;46.718;7.690;2023-12-20T09:34:55;5.98;93.64
68609;SHT31;55581;46.718;7.690;2023-12-20T09:37:20;5.98;93.88
68609;SHT31;55581;46.718;7.690;2023-12-20T09:39:45;6.05;93.99
68609;SHT31;55581;46.718;7.690;2023-12-20T09:42:12;6.11;93.24
68609;SHT31;55581;46.718;7.690;2023-12-20T09:44:41;6.19;93.35
68609;SHT31;55581;46.718;7.690;2023-12-20T09:47:07;6.19;93.57
68609;SHT31;55581;46.718;7.690;2023-12-20T09:49:33;6.22;94.16
68609;SHT31;55581;46.718;7.690;2023-12-20T09:52:00;6.32;94.41
68609;SHT31;55581;46.718;7.690;2023-12-20T09:54:26;6.39;92.54
68609;SHT31;55581;46.718;7.690;2023-12-20T09:56:53;6.46;92.07
68609;SHT31;55581;46.718;7.690;2023-12-20T09:59:19;6.46;93.24
68609;SHT31;55581;46.718;7.690;2023-12-20T10:01:47;6.54;94.06
68609;SHT31;55581;46.718;7.690;2023-12-20T10:04:13;6.63;93.31
68609;SHT31;55581;46.718;7.690;2023-12-20T10:06:43;6.66;93.83
68609;SHT31;55581;46.718;7.690;2023-12-20T10:09:12;6.58;93.44
68609;SHT31;55581;46.718;7.690;2023-12-20T10:11:38;6.56;93.76
68609;SHT31;55581;46.718;7.690;2023-12-20T10:14:04;6.58;94.00
68609;SHT31;55581;46.718;7.690;2023-12-20T10:16:31;6.64;93.40
68609;SHT31;55581;46.718;7.690;2023-12-20T10:18:58;6.64;92.73
68609;SHT31;55581;46.718;7.690;2023-12-20T10:21:24;6.67;93.23
68609;SHT31;55581;46.718;7.690;2023-12-20T10:23:52;6.70;91.73
68609;SHT31;55581;46.718;7.690;2023-12-20T10:26:22;6.77;90.92
68609;SHT31;55581;46.718;7.690;2023-12-20T10:28:53;6.91;91.13
68609;SHT31;55581;46.718;7.690;2023-12-20T10:33:58;7.13;90.83
68609;SHT31;55581;46.718;7.690;2023-12-20T10:36:29;7.19;91.50
68609;SHT31;55581;46.718;7.690;2023-12-20T10:38:56;7.20;91.59
68609;SHT31;55581;46.718;7.690;2023-12-20T10:41:30;7.19;92.01
68609;SHT31;55581;46.718;7.690;2023-12-20T10:44:01;7.29;91.08
68609;SHT31;55581;46.718;7.690;2023-12-20T10:46:27;7.29;90.71
68609;SHT31;55581;46.718;7.690;2023-12-20T10:48:56;7.32;90.11
68609;SHT31;55581;46.718;7.690;2023-12-20T10:51:23;7.30;89.19
68609;SHT31;55581;46.718;7.690;2023-12-20T10:53:52;7.32;90.08
68609;SHT31;55581;46.718;7.690;2023-12-20T10:56:19;7.36;90.53
68609;SHT31;55581;46.718;7.690;2023-12-20T10:58:48;7.34;91.17
68609;SHT31;55581;46.718;7.690;2023-12-20T11:01:15;7.30;89.78
68609;SHT31;55581;46.718;7.690;2023-12-20T11:03:56;7.39;89.93
68609;SHT31;55581;46.718;7.690;2023-12-20T11:06:36;7.33;89.45
68609;SHT31;55581;46.718;7.690;2023-12-20T11:09:29;7.42;89.98
68609;SHT31;55581;46.718;7.690;2023-12-20T11:12:35;7.37;89.12
68609;SHT31;55581;46.718;7.690;2023-12-20T11:15:02;7.50;88.76
68609;SHT31;55581;46.718;7.690;2023-12-20T11:17:29;7.49;90.43
68609;SHT31;55581;46.718;7.690;2023-12-20T11:22:24;7.42;88.53
68609;SHT31;55581;46.718;7.690;2023-12-20T11:24:51;7.36;88.03
68609;SHT31;55581;46.718;7.690;2023-12-20T11:27:18;7.29;89.90
68609;SHT31;55581;46.718;7.690;2023-12-20T11:29:51;7.46;89.47
68609;SHT31;55581;46.718;7.690;2023-12-20T11:34:58;7.51;89.72
68609;SHT31;55581;46.718;7.690;2023-12-20T11:37:35;7.47;88.01
68609;SHT31;55581;46.718;7.690;2023-12-20T11:40:05;7.39;88.29
68609;SHT31;55581;46.718;7.690;2023-12-20T11:42:38;7.47;88.53
68609;SHT31;55581;46.718;7.690;2023-12-20T11:45:04;7.43;88.38
68609;SHT31;55581;46.718;7.690;2023-12-20T11:47:30;7.43;89.19
68609;SHT31;55581;46.718;7.690;2023-12-20T11:49:58;7.40;88.99
68609;SHT31;55581;46.718;7.690;2023-12-20T11:52:29;7.46;89.16
68609;SHT31;55581;46.718;7.690;2023-12-20T11:54:54;7.40;87.37
68609;SHT31;55581;46.718;7.690;2023-12-20T11:57:20;7.43;88.45
68609;SHT31;55581;46.718;7.690;2023-12-20T11:59:45;7.43;88.10
68609;SHT31;55581;46.718;7.690;2023-12-20T12:02:12;7.24;88.61
68609;SHT31;55581;46.718;7.690;2023-12-20T12:04:37;7.23;89.29
68609;SHT31;55581;46.718;7.690;2023-12-20T12:07:05;7.27;89.09
68609;SHT31;55581;46.718;7.690;2023-12-20T12:09:30;7.26;89.02
68609;SHT31;55581;46.718;7.690;2023-12-20T12:11:58;7.20;89.18
68609;SHT31;55581;46.718;7.690;2023-12-20T12:14:24;7.11;88.25
68609;SHT31;55581;46.718;7.690;2023-12-20T12:16:51;7.19;89.09
68609;SHT31;55581;46.718;7.690;2023-12-20T12:19:22;7.29;88.73
68609;SHT31;55581;46.718;7.690;2023-12-20T12:21:51;7.26;88.04
68609;SHT31;55581;46.718;7.690;2023-12-20T12:24:20;7.30;89.46
68609;SHT31;55581;46.718;7.690;2023-12-20T12:26:51;7.36;89.78
68609;SHT31;55581;46.718;7.690;2023-12-20T12:29:17;7.39;88.77
68609;SHT31;55581;46.718;7.690;2023-12-20T12:31:46;7.40;89.32
68609;SHT31;55581;46.718;7.690;2023-12-20T12:34:12;7.43;88.57
68609;SHT31;55581;46.718;7.690;2023-12-20T12:36:39;7.39;87.83
68609;SHT31;55581;46.718;7.690;2023-12-20T12:39:05;7.42;88.74
68609;SHT31;55581;46.718;7.690;2023-12-20T12:41:30;7.49;88.05
68609;SHT31;55581;46.718;7.690;2023-12-20T12:43:58;7.51;89.59
68609;SHT31;55581;46.718;7.690;2023-12-20T12:46:24;7.54;89.18
68609;SHT31;55581;46.718;7.690;2023-12-20T12:48:49;7.54;87.74
68609;SHT31;55581;46.718;7.690;2023-12-20T12:51:15;7.64;88.90
68609;SHT31;55581;46.718;7.690;2023-12-20T12:53:46;7.66;85.62
68609;SHT31;55581;46.718;7.690;2023-12-20T12:56:12;7.71;81.50
68609;SHT31;55581;46.718;7.690;2023-12-20T12:58:39;7.71;83.74
68609;SHT31;55581;46.718;7.690;2023-12-20T13:01:05;7.67;83.26
68609;SHT31;55581;46.718;7.690;2023-12-20T13:03:30;7.63;83.60
68609;SHT31;55581;46.718;7.690;2023-12-20T13:05:58;7.67;80.58
68609;SHT31;55581;46.718;7.690;2023-12-20T13:08:24;7.59;82.52
68609;SHT31;55581;46.718;7.690;2023-12-20T13:10:49;7.60;79.18
68609;SHT31;55581;46.718;7.690;2023-12-20T13:13:15;7.57;80.67
68609;SHT31;55581;46.718;7.690;2023-12-20T13:15:42;7.57;82.69
68609;SHT31;55581;46.718;7.690;2023-12-20T13:18:07;7.56;84.83
68609;SHT31;55581;46.718;7.690;2023-12-20T13:20:33;7.54;85.50
68609;SHT31;55581;46.718;7.690;2023-12-20T13:23:02;7.53;82.19
68609;SHT31;55581;46.718;7.690;2023-12-20T13:25:28;7.44;80.75
68609;SHT31;55581;46.718;7.690;2023-12-20T13:27:54;7.49;79.78
68609;SHT31;55581;46.718;7.690;2023-12-20T13:30:21;7.42;83.11
68609;SHT31;55581;46.718;7.690;2023-12-20T13:32:47;7.43;80.67
68609;SHT31;55581;46.718;7.690;2023-12-20T13:35:12;7.46;81.15
68609;SHT31;55581;46.718;7.690;2023-12-20T13:37:38;7.56;82.22
68609;SHT31;55581;46.718;7.690;2023-12-20T13:40:07;7.46;79.90
68609;SHT31;55581;46.718;7.690;2023-12-20T13:42:33;7.39;79.61
68609;SHT31;55581;46.718;7.690;2023-12-20T13:44:58;7.40;79.91
68609;SHT31;55581;46.718;7.690;2023-12-20T13:47:24;7.42;79.74
68609;SHT31;55581;46.718;7.690;2023-12-20T13:49:50;7.27;80.61
68609;SHT31;55581;46.718;7.690;2023-12-20T13:52:16;7.24;79.96
68609;SHT31;55581;46.718;7.690;2023-12-20T13:54:41;7.15;79.21
68609;SHT31;55581;46.718;7.690;2023-12-20T13:57:07;7.15;79.76
68609;SHT31;55581;46.718;7.690;2023-12-20T13:59:32;7.11;80.85
68609;SHT31;55581;46.718;7.690;2023-12-20T14:01:57;7.09;80.06
68609;SHT31;55581;46.718;7.690;2023-12-20T14:04:23;7.02;80.67
68609;SHT31;55581;46.718;7.690;2023-12-20T14:06:48;6.95;80.96
68609;SHT31;55581;46.718;7.690;2023-12-20T14:09:15;6.92;81.60
68609;SHT31;55581;46.718;7.690;2023-12-20T14:11:42;6.92;81.76
68609;SHT31;55581;46.718;7.690;2023-12-20T14:14:10;6.85;81.69
68609;SHT31;55581;46.718;7.690;2023-12-20T14:16:35;6.88;83.31
68609;SHT31;55581;46.718;7.690;2023-12-20T14:19:01;6.81;83.18
68609;SHT31;55581;46.718;7.690;2023-12-20T14:21:28;6.77;82.94
68609;SHT31;55581;46.718;7.690;2023-12-20T14:23:54;6.77;82.33
68609;SHT31;55581;46.718;7.690;2023-12-20T14:26:20;6.71;81.87
68609;SHT31;55581;46.718;7.690;2023-12-20T14:28:45;6.67;82.16
68609;SHT31;55581;46.718;7.690;2023-12-20T14:31:14;6.54;84.17
68609;SHT31;55581;46.718;7.690;2023-12-20T14:33:41;6.50;83.08
68609;SHT31;55581;46.718;7.690;2023-12-20T14:36:09;6.47;82.18
68609;SHT31;55581;46.718;7.690;2023-12-20T14:38:35;6.39;82.25
68609;SHT31;55581;46.718;7.690;2023-12-20T14:41:03;6.46;82.04
68609;SHT31;55581;46.718;7.690;2023-12-20T14:43:31;6.37;81.86
68609;SHT31;55581;46.718;7.690;2023-12-20T14:45:56;6.34;81.66
68609;SHT31;55581;46.718;7.690;2023-12-20T14:48:25;6.25;82.15
68609;SHT31;55581;46.718;7.690;2023-12-20T14:50:53;6.30;80.69
68609;SHT31;55581;46.718;7.690;2023-12-20T14:53:18;6.25;80.82
68609;SHT31;55581;46.718;7.690;2023-12-20T14:55:44;6.19;79.54
68609;SHT31;55581;46.718;7.690;2023-12-20T14:58:11;6.15;80.19
68609;SHT31;55581;46.718;7.690;2023-12-20T15:00:36;6.12;81.62
68609;SHT31;55581;46.718;7.690;2023-12-20T15:03:02;6.09;80.77
68609;SHT31;55581;46.718;7.690;2023-12-20T15:05:30;6.06;80.50
68609;SHT31;55581;46.718;7.690;2023-12-20T15:07:55;6.02;79.78
68609;SHT31;55581;46.718;7.690;2023-12-20T15:10:20;5.95;80.73
68609;SHT31;55581;46.718;7.690;2023-12-20T15:12:46;5.98;80.96
68609;SHT31;55581;46.718;7.690;2023-12-20T15:15:14;5.98;79.75
68609;SHT31;55581;46.718;7.690;2023-12-20T15:17:42;5.97;79.63
68609;SHT31;55581;46.718;7.690;2023-12-20T15:20:07;5.92;79.69
68609;SHT31;55581;46.718;7.690;2023-12-20T15:22:37;5.88;78.89
68609;SHT31;55581;46.718;7.690;2023-12-20T15:25:03;5.88;78.63
68609;SHT31;55581;46.718;7.690;2023-12-20T15:27:31;5.84;78.08
68609;SHT31;55581;46.718;7.690;2023-12-20T15:30:00;5.82;77.99
68609;SHT31;55581;46.718;7.690;2023-12-20T15:32:28;5.79;77.26
68609;SHT31;55581;46.718;7.690;2023-12-20T15:34:53;5.78;76.65
68609;SHT31;55581;46.718;7.690;2023-12-20T15:37:19;5.74;76.46
68609;SHT31;55581;46.718;7.690;2023-12-20T15:39:44;5.71;77.88
68609;SHT31;55581;46.718;7.690;2023-12-20T15:42:11;5.71;80.94
68609;SHT31;55581;46.718;7.690;2023-12-20T15:44:36;5.64;77.16
68609;SHT31;55581;46.718;7.690;2023-12-20T15:47:02;5.64;77.80
68609;SHT31;55581;46.718;7.690;2023-12-20T15:49:27;5.57;77.04